Time;durP1;ratioP1;P1;durP2;ratioP2;P2;SDS_P1;SDS_P2;PMS_P1;PMS_P2;Temp;Humidity;BMP_temperature;BMP_pressure;BME280_temperature;BME280_humidity;BME280_pressure;Samples;Min_cycle;Max_cycle;Signal;HPM_P1;HPM_P2
2021/07/23 00:02:12;;;;;;;13.48;12.10;;;;;;;;;;5073373;28;20055;-73
2021/07/23 00:04:38;;;;;;;12.00;10.90;;;;;;;;;;5073979;28;20032;-74
2021/07/23 00:07:04;;;;;;;12.77;11.32;;;;;;;;;;5073846;28;20174;-73
2021/07/23 00:09:30;;;;;;;13.88;10.85;;;;;;;;;;5073497;28;20017;-74
2021/07/23 00:11:56;;;;;;;12.52;11.27;;;;;;;;;;5073252;28;20024;-75
2021/07/23 00:14:22;;;;;;;13.07;11.52;;;;;;;;;;5072793;28;20021;-74
2021/07/23 00:16:48;;;;;;;12.27;11.07;;;;;;;;;;5074338;28;20035;-74
2021/07/23 00:19:14;;;;;;;12.80;11.23;;;;;;;;;;5076786;28;20020;-72
2021/07/23 00:21:40;;;;;;;12.05;9.82;;;;;;;;;;5076576;28;20032;-74
2021/07/23 00:24:06;;;;;;;12.73;11.20;;;;;;;;;;5076729;28;20023;-73
2021/07/23 00:26:32;;;;;;;15.63;10.30;;;;;;;;;;5076876;28;20489;-73
2021/07/23 00:28:58;;;;;;;12.68;10.55;;;;;;;;;;5076373;28;20470;-73
2021/07/23 00:31:24;;;;;;;11.18;9.55;;;;;;;;;;5077101;28;20474;-74
2021/07/23 00:33:50;;;;;;;11.82;10.60;;;;;;;;;;5076118;28;20477;-73
2021/07/23 00:36:16;;;;;;;12.70;10.48;;;;;;;;;;5076315;28;20024;-73
2021/07/23 00:38:43;;;;;;;12.05;10.88;;;;;;;;;;5076371;28;20025;-73
2021/07/23 00:41:09;;;;;;;11.65;10.45;;;;;;;;;;5076495;28;20021;-73
2021/07/23 00:43:35;;;;;;;10.70;9.70;;;;;;;;;;5076422;28;20064;-77
2021/07/23 00:46:01;;;;;;;11.60;10.43;;;;;;;;;;5076386;28;20085;-77
2021/07/23 00:48:27;;;;;;;10.50;9.60;;;;;;;;;;5076307;28;20165;-75
2021/07/23 00:50:53;;;;;;;11.10;10.02;;;;;;;;;;5076858;28;20024;-77
2021/07/23 00:53:19;;;;;;;11.07;9.95;;;;;;;;;;5076009;28;20492;-76
2021/07/23 00:55:50;;;;;;;11.48;10.43;;;;;;;;;;5076115;28;20398;-76
2021/07/23 00:58:16;;;;;;;13.40;10.43;;;;;;;;;;5075890;28;20045;-74
2021/07/23 01:00:42;;;;;;;11.50;9.45;;;;;;;;;;5076601;28;20032;-75
2021/07/23 01:03:08;;;;;;;11.18;10.18;;;;;;;;;;5076281;28;20033;-75
2021/07/23 01:05:36;;;;;;;11.98;10.50;;;;;;;;;;5075881;28;20059;-74
2021/07/23 01:08:02;;;;;;;10.13;9.13;;;;;;;;;;5075377;28;20074;-74
2021/07/23 01:10:28;;;;;;;10.60;9.60;;;;;;;;;;5075937;28;20073;-74
2021/07/23 01:12:54;;;;;;;11.10;9.68;;;;;;;;;;5075098;28;20116;-74
2021/07/23 01:15:20;;;;;;;10.63;9.63;;;;;;;;;;5075811;28;20024;-74
2021/07/23 01:17:46;;;;;;;10.98;9.98;;;;;;;;;;5075358;28;20024;-74
2021/07/23 01:20:19;;;;;;;11.82;10.60;;;;;;;;;;5075668;28;20398;-74
2021/07/23 01:22:45;;;;;;;10.30;9.23;;;;;;;;;;5075743;28;20029;-74
2021/07/23 01:25:11;;;;;;;12.02;9.70;;;;;;;;;;5075251;28;20020;-74
2021/07/23 01:27:43;;;;;;;13.30;10.38;;;;;;;;;;5074987;28;20024;-74
2021/07/23 01:30:09;;;;;;;13.00;9.45;;;;;;;;;;5075540;28;20022;-74
2021/07/23 01:32:35;;;;;;;11.23;10.18;;;;;;;;;;5075121;28;20060;-74
2021/07/23 01:35:02;;;;;;;11.52;10.32;;;;;;;;;;5075016;28;20035;-74
2021/07/23 01:37:28;;;;;;;10.75;9.45;;;;;;;;;;5075027;28;20032;-74
2021/07/23 01:39:54;;;;;;;10.10;9.20;;;;;;;;;;5074777;28;20043;-75
2021/07/23 01:42:20;;;;;;;10.52;9.35;;;;;;;;;;5074920;28;20021;-74
2021/07/23 01:44:46;;;;;;;11.07;9.82;;;;;;;;;;5075987;28;20025;-74
2021/07/23 01:47:12;;;;;;;9.27;8.35;;;;;;;;;;5075710;28;20032;-74
2021/07/23 01:49:38;;;;;;;10.07;9.18;;;;;;;;;;5075187;28;20060;-75
2021/07/23 01:52:04;;;;;;;11.65;8.63;;;;;;;;;;5074405;28;20056;-74
2021/07/23 01:54:30;;;;;;;14.13;9.95;;;;;;;;;;5074450;28;20123;-74
2021/07/23 01:56:56;;;;;;;9.85;8.85;;;;;;;;;;5074372;28;20604;-74
2021/07/23 01:59:22;;;;;;;9.82;8.90;;;;;;;;;;5074645;28;20411;-74
2021/07/23 02:01:48;;;;;;;10.90;9.90;;;;;;;;;;5074252;28;20024;-74
2021/07/23 02:04:14;;;;;;;10.55;9.57;;;;;;;;;;5074916;28;20059;-74
2021/07/23 02:06:40;;;;;;;10.60;9.57;;;;;;;;;;5074642;28;20032;-74
2021/07/23 02:09:06;;;;;;;10.27;9.20;;;;;;;;;;5074422;28;20082;-74
2021/07/23 02:11:32;;;;;;;11.60;9.93;;;;;;;;;;5074365;28;20111;-74
2021/07/23 02:14:01;;;;;;;9.75;8.80;;;;;;;;;;5074307;28;20328;-74
2021/07/23 02:16:27;;;;;;;11.85;9.32;;;;;;;;;;5074697;28;20020;-74
2021/07/23 02:18:53;;;;;;;10.18;9.18;;;;;;;;;;5074281;28;20537;-74
2021/07/23 02:21:19;;;;;;;10.50;9.50;;;;;;;;;;5074709;28;20029;-74
2021/07/23 02:23:45;;;;;;;9.82;8.82;;;;;;;;;;5074346;28;20102;-74
2021/07/23 02:26:19;;;;;;;15.00;8.57;;;;;;;;;;5074475;28;20032;-74
2021/07/23 02:28:45;;;;;;;14.07;9.00;;;;;;;;;;5074892;28;20028;-74
2021/07/23 02:31:11;;;;;;;10.18;9.15;;;;;;;;;;5074089;28;20363;-74
2021/07/23 02:33:37;;;;;;;9.68;8.73;;;;;;;;;;5073800;28;20494;-74
2021/07/23 02:36:03;;;;;;;10.07;9.05;;;;;;;;;;5074399;28;20433;-74
2021/07/23 02:38:29;;;;;;;10.20;9.05;;;;;;;;;;5073869;28;20051;-74
2021/07/23 02:40:56;;;;;;;10.48;9.43;;;;;;;;;;5074090;28;20501;-74
2021/07/23 02:43:22;;;;;;;9.60;8.13;;;;;;;;;;5074145;28;20020;-74
2021/07/23 02:45:48;;;;;;;9.50;8.55;;;;;;;;;;5073890;28;20024;-74
2021/07/23 02:48:14;;;;;;;10.43;8.82;;;;;;;;;;5074084;28;20025;-74
2021/07/23 02:50:40;;;;;;;9.95;9.05;;;;;;;;;;5074366;28;20029;-74
2021/07/23 02:53:06;;;;;;;9.90;9.10;;;;;;;;;;5073584;28;20056;-74
2021/07/23 02:55:33;;;;;;;10.63;9.52;;;;;;;;;;5074056;28;20068;-74
2021/07/23 02:57:59;;;;;;;9.80;8.85;;;;;;;;;;5073743;28;20354;-74
2021/07/23 03:00:25;;;;;;;9.75;8.80;;;;;;;;;;5075027;28;20029;-74
2021/07/23 03:02:51;;;;;;;9.35;8.55;;;;;;;;;;5074062;28;20067;-74
2021/07/23 03:05:17;;;;;;;8.90;8.00;;;;;;;;;;5073699;28;20378;-75
2021/07/23 03:07:43;;;;;;;13.20;9.20;;;;;;;;;;5073234;28;20017;-74
2021/07/23 03:10:09;;;;;;;9.43;8.50;;;;;;;;;;5073693;28;20056;-74
2021/07/23 03:12:35;;;;;;;10.40;7.78;;;;;;;;;;5073677;28;20059;-74
2021/07/23 03:15:01;;;;;;;9.45;8.55;;;;;;;;;;5073655;28;20092;-74
2021/07/23 03:17:28;;;;;;;14.13;8.73;;;;;;;;;;5073659;28;20054;-74
2021/07/23 03:19:54;;;;;;;9.57;8.57;;;;;;;;;;5073634;28;20036;-74
2021/07/23 03:22:20;;;;;;;9.32;8.38;;;;;;;;;;5073363;28;20101;-75
2021/07/23 03:24:46;;;;;;;19.58;9.63;;;;;;;;;;5073611;28;20024;-75
2021/07/23 03:27:12;;;;;;;15.18;10.32;;;;;;;;;;5073940;28;20033;-74
2021/07/23 03:29:38;;;;;;;15.35;11.65;;;;;;;;;;5073873;28;20021;-74
2021/07/23 03:32:04;;;;;;;27.30;13.77;;;;;;;;;;5073240;28;20028;-74
2021/07/23 03:34:30;;;;;;;27.88;15.07;;;;;;;;;;5073212;28;20478;-74
2021/07/23 03:36:57;;;;;;;22.35;12.00;;;;;;;;;;5073565;28;20032;-74
2021/07/23 03:39:23;;;;;;;18.27;10.60;;;;;;;;;;5073429;28;20020;-74
2021/07/23 03:41:49;;;;;;;16.20;12.25;;;;;;;;;;5073305;28;20025;-74
2021/07/23 03:44:15;;;;;;;19.23;12.32;;;;;;;;;;5073404;28;20107;-74
2021/07/23 03:46:41;;;;;;;15.55;10.88;;;;;;;;;;5073635;28;20025;-74
2021/07/23 03:49:07;;;;;;;17.75;10.93;;;;;;;;;;5073636;28;20021;-74
2021/07/23 03:51:33;;;;;;;18.08;11.93;;;;;;;;;;5073700;28;20032;-74
2021/07/23 03:53:59;;;;;;;16.33;10.82;;;;;;;;;;5077213;28;20052;-74
2021/07/23 03:56:25;;;;;;;17.67;11.55;;;;;;;;;;5077057;28;20058;-74
2021/07/23 03:58:52;;;;;;;17.83;11.73;;;;;;;;;;5077290;28;20055;-74
2021/07/23 04:01:18;;;;;;;20.67;11.13;;;;;;;;;;5077271;28;20027;-75
2021/07/23 04:03:44;;;;;;;16.85;10.80;;;;;;;;;;5076798;28;20028;-75
2021/07/23 04:06:11;;;;;;;15.65;9.80;;;;;;;;;;5076927;28;20110;-75
2021/07/23 04:08:39;;;;;;;13.15;10.30;;;;;;;;;;5076812;28;20020;-75
2021/07/23 04:11:05;;;;;;;16.08;11.25;;;;;;;;;;5077001;28;20351;-74
2021/07/23 04:13:31;;;;;;;18.63;11.40;;;;;;;;;;5076918;28;20119;-74
2021/07/23 04:15:57;;;;;;;14.38;10.20;;;;;;;;;;5077431;28;20028;-75
2021/07/23 04:18:23;;;;;;;15.13;10.57;;;;;;;;;;5077140;28;20104;-74
2021/07/23 04:20:49;;;;;;;14.18;11.40;;;;;;;;;;5076908;28;20021;-74
2021/07/23 04:23:15;;;;;;;16.23;10.57;;;;;;;;;;5076688;28;20024;-75
2021/07/23 04:25:41;;;;;;;16.42;11.45;;;;;;;;;;5076668;28;20036;-75
2021/07/23 04:28:07;;;;;;;13.40;10.52;;;;;;;;;;5076564;28;20028;-74
2021/07/23 04:30:34;;;;;;;17.08;10.95;;;;;;;;;;5076802;28;20063;-74
2021/07/23 04:33:00;;;;;;;17.25;11.07;;;;;;;;;;5076329;28;20121;-73
2021/07/23 04:35:26;;;;;;;12.27;10.27;;;;;;;;;;5076851;28;20028;-74
2021/07/23 04:37:52;;;;;;;15.18;10.05;;;;;;;;;;5075940;28;20021;-74
2021/07/23 04:40:18;;;;;;;15.43;11.40;;;;;;;;;;5076390;28;20028;-74
2021/07/23 04:42:44;;;;;;;16.20;10.48;;;;;;;;;;5076536;28;20020;-75
2021/07/23 04:45:10;;;;;;;16.50;11.25;;;;;;;;;;5076368;28;20020;-74
2021/07/23 04:47:38;;;;;;;12.75;10.48;;;;;;;;;;5076485;28;20565;-75
2021/07/23 04:50:04;;;;;;;11.93;10.63;;;;;;;;;;5076600;28;20036;-75
2021/07/23 04:52:30;;;;;;;14.02;10.77;;;;;;;;;;5075944;28;20049;-75
2021/07/23 04:54:57;;;;;;;10.68;8.50;;;;;;;;;;5076471;28;20028;-75
2021/07/23 04:57:28;;;;;;;11.82;9.65;;;;;;;;;;5076219;28;20028;-75
2021/07/23 04:59:54;;;;;;;;;;;;;;;;;;5076340;28;20024;-75
2021/07/23 05:02:20;;;;;;;10.15;9.10;;;;;;;;;;5075695;28;20278;-73
2021/07/23 05:04:47;;;;;;;10.45;8.77;;;;;;;;;;5087788;28;20027;-74
2021/07/23 05:07:13;;;;;;;11.52;9.88;;;;;;;;;;5096324;28;20028;-73
2021/07/23 05:09:39;;;;;;;10.30;9.18;;;;;;;;;;5096865;28;20028;-74
2021/07/23 05:12:05;;;;;;;11.77;9.48;;;;;;;;;;5096284;28;20101;-73
2021/07/23 05:14:31;;;;;;;9.70;8.80;;;;;;;;;;5095932;28;20043;-76
2021/07/23 05:16:58;;;;;;;10.32;9.32;;;;;;;;;;5096960;28;20020;-74
2021/07/23 05:19:24;;;;;;;9.98;9.07;;;;;;;;;;5096310;28;20016;-75
2021/07/23 05:21:50;;;;;;;10.68;9.05;;;;;;;;;;5096395;28;20032;-75
2021/07/23 05:24:16;;;;;;;15.13;9.57;;;;;;;;;;5094764;28;20032;-76
2021/07/23 05:26:42;;;;;;;12.93;9.23;;;;;;;;;;5096112;28;20028;-75
2021/07/23 05:29:09;;;;;;;11.68;9.18;;;;;;;;;;5095621;28;20032;-76
2021/07/23 05:31:35;;;;;;;10.50;9.02;;;;;;;;;;5096015;28;20016;-74
2021/07/23 05:34:02;;;;;;;11.60;8.57;;;;;;;;;;5093532;28;20081;-73
2021/07/23 05:36:28;;;;;;;10.07;9.00;;;;;;;;;;5094836;28;20386;-74
2021/07/23 05:38:54;;;;;;;10.80;8.55;;;;;;;;;;5094899;28;20046;-72
2021/07/23 05:41:20;;;;;;;10.00;8.93;;;;;;;;;;5095572;28;20451;-74
2021/07/23 05:43:46;;;;;;;10.95;8.95;;;;;;;;;;5091936;28;20035;-75
2021/07/23 05:46:12;;;;;;;10.23;9.13;;;;;;;;;;5095567;28;20157;-74
2021/07/23 05:48:39;;;;;;;10.38;8.35;;;;;;;;;;5095084;28;20479;-74
2021/07/23 05:51:05;;;;;;;11.75;9.35;;;;;;;;;;5094463;28;20028;-74
2021/07/23 05:53:31;;;;;;;9.48;8.32;;;;;;;;;;5093305;28;20056;-76
2021/07/23 05:55:58;;;;;;;10.00;9.00;;;;;;;;;;5094424;28;20489;-76
2021/07/23 05:58:26;;;;;;;11.95;8.38;;;;;;;;;;5094892;28;20024;-75
2021/07/23 06:00:52;;;;;;;12.25;8.43;;;;;;;;;;5094634;28;20107;-75
2021/07/23 06:03:18;;;;;;;13.57;9.50;;;;;;;;;;5093037;28;20032;-76
2021/07/23 06:05:44;;;;;;;11.25;8.35;;;;;;;;;;5094582;28;20047;-74
2021/07/23 06:08:10;;;;;;;10.85;8.15;;;;;;;;;;5094785;28;20028;-74
2021/07/23 06:10:36;;;;;;;16.52;9.05;;;;;;;;;;5094646;28;20050;-74
2021/07/23 06:13:03;;;;;;;18.25;9.70;;;;;;;;;;5092774;28;20028;-73
2021/07/23 06:15:29;;;;;;;13.77;9.77;;;;;;;;;;5089339;28;20115;-74
2021/07/23 06:17:55;;;;;;;11.15;9.48;;;;;;;;;;5085291;28;20047;-73
2021/07/23 06:20:21;;;;;;;12.18;8.55;;;;;;;;;;5092982;28;20485;-72
2021/07/23 06:22:47;;;;;;;13.30;9.20;;;;;;;;;;5095158;28;20024;-74
2021/07/23 06:25:13;;;;;;;9.38;8.00;;;;;;;;;;5095300;28;20453;-74
2021/07/23 06:27:39;;;;;;;13.93;9.30;;;;;;;;;;5094648;28;20408;-73
2021/07/23 06:30:06;;;;;;;10.43;8.82;;;;;;;;;;5093373;28;20043;-75
2021/07/23 06:32:32;;;;;;;10.73;8.50;;;;;;;;;;5094760;28;20024;-73
2021/07/23 06:34:58;;;;;;;13.55;8.35;;;;;;;;;;5094865;28;20070;-72
2021/07/23 06:37:25;;;;;;;12.27;8.00;;;;;;;;;;5094863;28;20470;-73
2021/07/23 06:39:51;;;;;;;11.40;9.02;;;;;;;;;;5094346;28;20039;-74
2021/07/23 06:42:17;;;;;;;13.73;9.35;;;;;;;;;;5092325;28;20028;-74
2021/07/23 06:44:43;;;;;;;10.50;8.13;;;;;;;;;;5094392;28;20034;-72
2021/07/23 06:47:09;;;;;;;14.52;8.07;;;;;;;;;;5092482;28;20046;-73
2021/07/23 06:49:35;;;;;;;12.07;8.25;;;;;;;;;;5093278;28;20454;-74
2021/07/23 06:52:02;;;;;;;8.88;7.68;;;;;;;;;;5093250;28;20377;-74
2021/07/23 06:54:28;;;;;;;10.40;9.40;;;;;;;;;;5094297;28;20485;-74
2021/07/23 06:56:54;;;;;;;11.38;7.93;;;;;;;;;;5093513;28;20039;-73
2021/07/23 06:59:20;;;;;;;8.52;7.63;;;;;;;;;;5094092;28;20485;-73
2021/07/23 07:01:47;;;;;;;12.38;8.93;;;;;;;;;;5093569;28;20039;-73
2021/07/23 07:04:13;;;;;;;8.82;7.80;;;;;;;;;;5093317;28;20122;-74
2021/07/23 07:06:39;;;;;;;9.95;8.70;;;;;;;;;;5093998;28;20024;-73
2021/07/23 07:09:05;;;;;;;9.48;8.50;;;;;;;;;;5094008;28;20028;-74
2021/07/23 07:11:31;;;;;;;9.60;7.93;;;;;;;;;;5093682;28;20032;-75
2021/07/23 07:13:57;;;;;;;9.20;8.23;;;;;;;;;;5093260;28;20028;-75
2021/07/23 07:16:23;;;;;;;13.40;8.55;;;;;;;;;;5093525;28;20024;-74
2021/07/23 07:18:49;;;;;;;13.98;8.05;;;;;;;;;;5093234;28;20545;-74
2021/07/23 07:21:15;;;;;;;7.75;6.85;;;;;;;;;;5093826;28;20359;-74
2021/07/23 07:23:41;;;;;;;10.15;6.72;;;;;;;;;;5092939;28;20123;-75
2021/07/23 07:26:09;;;;;;;12.07;8.57;;;;;;;;;;5095619;28;20068;-75
2021/07/23 07:28:35;;;;;;;8.52;7.72;;;;;;;;;;5098026;28;20063;-73
2021/07/23 07:31:01;;;;;;;11.23;8.05;;;;;;;;;;5098343;28;20054;-74
2021/07/23 07:33:29;;;;;;;11.90;8.77;;;;;;;;;;5097632;28;20028;-74
2021/07/23 07:35:56;;;;;;;18.65;11.90;;;;;;;;;;5099571;28;20024;-77
2021/07/23 07:38:22;;;;;;;57.83;18.80;;;;;;;;;;5100593;28;20370;-75
2021/07/23 07:40:48;;;;;;;41.03;17.05;;;;;;;;;;5099737;28;20416;-76
2021/07/23 07:43:14;;;;;;;29.80;12.77;;;;;;;;;;5097806;28;20028;-79
2021/07/23 07:45:40;;;;;;;27.90;13.68;;;;;;;;;;5098659;28;20020;-81
2021/07/23 07:48:06;;;;;;;18.90;12.02;;;;;;;;;;5098352;28;20020;-79
2021/07/23 07:50:32;;;;;;;25.67;12.43;;;;;;;;;;5096621;28;20025;-78
2021/07/23 07:52:58;;;;;;;35.15;12.27;;;;;;;;;;5098158;28;20076;-82
2021/07/23 07:55:25;;;;;;;15.70;10.02;;;;;;;;;;5080538;28;20029;-76
2021/07/23 07:57:52;;;;;;;18.65;10.38;;;;;;;;;;5079916;28;20025;-75
2021/07/23 08:00:18;;;;;;;13.07;10.00;;;;;;;;;;5088565;28;20110;-72
2021/07/23 08:02:46;;;;;;;22.00;9.88;;;;;;;;;;5097004;28;20024;-77
2021/07/23 08:05:14;;;;;;;24.38;9.90;;;;;;;;;;5097962;28;20115;-72
2021/07/23 08:07:40;;;;;;;15.73;9.75;;;;;;;;;;5096370;28;20020;-73
2021/07/23 08:10:08;;;;;;;18.20;10.52;;;;;;;;;;5095858;28;20070;-74
2021/07/23 08:12:34;;;;;;;19.25;9.15;;;;;;;;;;5095724;28;20092;-74
2021/07/23 08:15:00;;;;;;;16.25;7.78;;;;;;;;;;5096193;28;20032;-77
2021/07/23 08:17:28;;;;;;;13.73;9.73;;;;;;;;;;5097386;28;20032;-75
2021/07/23 08:19:55;;;;;;;14.40;8.65;;;;;;;;;;5098233;28;20027;-75
2021/07/23 08:22:21;;;;;;;13.07;8.60;;;;;;;;;;5098248;28;20024;-76
2021/07/23 08:24:47;;;;;;;15.25;9.25;;;;;;;;;;5098418;28;20443;-76
2021/07/23 08:27:15;;;;;;;15.30;9.07;;;;;;;;;;5097898;28;20024;-76
2021/07/23 08:29:41;;;;;;;18.25;9.85;;;;;;;;;;5097843;28;20032;-75
2021/07/23 08:32:08;;;;;;;22.55;9.20;;;;;;;;;;5098050;28;20457;-74
2021/07/23 08:34:35;;;;;;;13.70;8.73;;;;;;;;;;5097192;28;20130;-72
2021/07/23 08:37:01;;;;;;;16.92;8.85;;;;;;;;;;5096622;28;20035;-72
2021/07/23 08:39:27;;;;;;;15.15;8.52;;;;;;;;;;5097477;28;20027;-75
2021/07/23 08:41:53;;;;;;;11.25;8.88;;;;;;;;;;5097060;28;20481;-75
2021/07/23 08:44:19;;;;;;;8.98;7.85;;;;;;;;;;5097165;28;20520;-75
2021/07/23 08:46:45;;;;;;;13.73;7.22;;;;;;;;;;5096105;28;20028;-77
2021/07/23 08:49:11;;;;;;;10.50;8.00;;;;;;;;;;5096035;28;20020;-75
2021/07/23 08:51:37;;;;;;;13.77;8.35;;;;;;;;;;5096408;28;20482;-75
2021/07/23 08:54:06;;;;;;;14.93;8.68;;;;;;;;;;5095106;28;20044;-74
2021/07/23 08:56:32;;;;;;;10.23;7.15;;;;;;;;;;5096165;28;20025;-76
2021/07/23 08:58:58;;;;;;;15.15;8.15;;;;;;;;;;5095529;28;20176;-78
2021/07/23 09:01:24;;;;;;;9.70;7.28;;;;;;;;;;5077950;28;20024;-78
2021/07/23 09:03:50;;;;;;;12.07;8.23;;;;;;;;;;5075036;28;20029;-76
2021/07/23 09:06:17;;;;;;;16.90;7.60;;;;;;;;;;5075486;28;20082;-75
2021/07/23 09:08:51;;;;;;;13.07;7.45;;;;;;;;;;5075501;28;20530;-75
2021/07/23 09:11:27;;;;;;;10.10;8.30;;;;;;;;;;5074179;28;20032;-77
2021/07/23 09:13:57;;;;;;;8.82;7.88;;;;;;;;;;5074365;28;20393;-74
2021/07/23 09:16:24;;;;;;;10.52;7.43;;;;;;;;;;5075158;28;20039;-76
2021/07/23 09:19:04;;;;;;;9.52;7.00;;;;;;;;;;5075418;28;20028;-77
2021/07/23 09:21:30;;;;;;;10.55;7.85;;;;;;;;;;5080643;28;20028;-76
2021/07/23 09:23:56;;;;;;;8.65;7.50;;;;;;;;;;5074577;28;20032;-73
2021/07/23 09:26:24;;;;;;;10.80;7.20;;;;;;;;;;5074051;28;20035;-73
2021/07/23 09:28:50;;;;;;;9.20;7.75;;;;;;;;;;5074585;28;20493;-75
2021/07/23 09:31:24;;;;;;;11.32;7.07;;;;;;;;;;5074194;28;20024;-76
2021/07/23 09:33:53;;;;;;;8.93;7.70;;;;;;;;;;5074418;28;20543;-75
2021/07/23 09:36:19;;;;;;;9.80;7.28;;;;;;;;;;5074139;28;20515;-75
2021/07/23 09:38:46;;;;;;;8.52;7.70;;;;;;;;;;5074679;28;20024;-73
2021/07/23 09:41:27;;;;;;;8.32;7.55;;;;;;;;;;5074862;28;20075;-74
2021/07/23 09:44:11;;;;;;;8.32;6.25;;;;;;;;;;5074631;28;20051;-74
2021/07/23 09:46:42;;;;;;;8.93;7.32;;;;;;;;;;5074197;28;20099;-77
2021/07/23 09:49:28;;;;;;;11.88;8.05;;;;;;;;;;5074426;28;20027;-75
2021/07/23 09:51:55;;;;;;;9.27;7.35;;;;;;;;;;5072770;28;20158;-77
2021/07/23 09:54:21;;;;;;;9.65;7.35;;;;;;;;;;5074536;28;20044;-76
2021/07/23 09:56:47;;;;;;;10.57;7.13;;;;;;;;;;5073827;28;20370;-75
2021/07/23 09:59:16;;;;;;;8.15;7.20;;;;;;;;;;5074053;28;20021;-76
2021/07/23 10:01:42;;;;;;;24.50;7.00;;;;;;;;;;5072886;28;20478;-77
2021/07/23 10:04:10;;;;;;;7.72;6.97;;;;;;;;;;5074149;28;20029;-74
2021/07/23 10:06:38;;;;;;;10.30;7.97;;;;;;;;;;5074093;28;20528;-73
2021/07/23 10:09:08;;;;;;;9.68;6.88;;;;;;;;;;5075013;28;20033;-76
2021/07/23 10:11:34;;;;;;;12.68;7.65;;;;;;;;;;5074323;28;20036;-76
2021/07/23 10:14:00;;;;;;;8.93;6.05;;;;;;;;;;5074030;28;20032;-76
2021/07/23 10:16:26;;;;;;;8.27;6.72;;;;;;;;;;5074250;28;20347;-76
2021/07/23 10:18:52;;;;;;;11.65;7.15;;;;;;;;;;5074156;28;20029;-75
2021/07/23 10:21:18;;;;;;;9.00;7.38;;;;;;;;;;5074252;28;20021;-74
2021/07/23 10:23:45;;;;;;;7.78;7.07;;;;;;;;;;5074045;28;20081;-75
2021/07/23 10:26:11;;;;;;;22.00;7.65;;;;;;;;;;5074881;28;20101;-73
2021/07/23 10:28:57;;;;;;;14.10;7.63;;;;;;;;;;5073788;28;20425;-73
2021/07/23 10:31:43;;;;;;;22.20;6.63;;;;;;;;;;5073333;28;20025;-72
2021/07/23 10:34:10;;;;;;;11.57;7.68;;;;;;;;;;5073097;28;20097;-75
2021/07/23 10:36:37;;;;;;;28.58;6.85;;;;;;;;;;5074042;28;20025;-76
2021/07/23 10:39:10;;;;;;;9.70;8.15;;;;;;;;;;5073649;28;20028;-74
2021/07/23 10:41:38;;;;;;;13.75;7.50;;;;;;;;;;5073807;28;20078;-76
2021/07/23 10:44:05;;;;;;;15.18;8.32;;;;;;;;;;5074214;28;20381;-75
2021/07/23 10:46:51;;;;;;;28.90;9.48;;;;;;;;;;5073872;28;20017;-73
2021/07/23 10:49:37;;;;;;;12.13;7.55;;;;;;;;;;5072995;28;20344;-74
2021/07/23 10:52:03;;;;;;;12.00;7.45;;;;;;;;;;5072372;28;20056;-72
2021/07/23 10:54:32;;;;;;;39.33;8.40;;;;;;;;;;5073600;28;20127;-74
2021/07/23 10:57:14;;;;;;;19.30;8.55;;;;;;;;;;5073802;28;20029;-75
2021/07/23 10:59:49;;;;;;;11.38;7.78;;;;;;;;;;5073414;28;20382;-76
2021/07/23 11:02:35;;;;;;;12.77;8.07;;;;;;;;;;5073269;28;20434;-75
2021/07/23 11:05:04;;;;;;;26.17;7.53;;;;;;;;;;5072928;28;20029;-75
2021/07/23 11:07:30;;;;;;;9.98;8.27;;;;;;;;;;5074074;28;20458;-76
2021/07/23 11:09:56;;;;;;;9.45;8.48;;;;;;;;;;5073607;28;20516;-75
2021/07/23 11:12:23;;;;;;;40.10;10.23;;;;;;;;;;5073902;28;20024;-75
2021/07/23 11:14:52;;;;;;;16.55;9.25;;;;;;;;;;5073123;28;20095;-74
2021/07/23 11:17:18;;;;;;;14.52;8.98;;;;;;;;;;5073367;28;20024;-76
2021/07/23 11:19:53;;;;;;;21.13;9.05;;;;;;;;;;5073567;28;20107;-74
2021/07/23 11:22:21;;;;;;;14.02;8.68;;;;;;;;;;5073858;28;20112;-75
2021/07/23 11:24:47;;;;;;;14.68;8.65;;;;;;;;;;5073729;28;20021;-76
2021/07/23 11:27:23;;;;;;;12.32;7.50;;;;;;;;;;5073758;28;20032;-76
2021/07/23 11:29:49;;;;;;;16.02;9.13;;;;;;;;;;5089846;28;20093;-73
2021/07/23 11:32:17;;;;;;;8.75;7.75;;;;;;;;;;5093831;28;20054;-74
2021/07/23 11:34:44;;;;;;;9.45;8.48;;;;;;;;;;5091393;28;20032;-74
2021/07/23 11:37:15;;;;;;;10.02;7.88;;;;;;;;;;5092920;28;20024;-74
2021/07/23 11:39:51;;;;;;;10.30;8.20;;;;;;;;;;5094047;28;20028;-75
2021/07/23 11:42:17;;;;;;;9.10;8.20;;;;;;;;;;5093427;28;20024;-75
2021/07/23 11:44:59;;;;;;;11.48;8.18;;;;;;;;;;5093413;28;20024;-75
2021/07/23 11:47:32;;;;;;;19.83;8.80;;;;;;;;;;5093592;28;20477;-75
2021/07/23 11:49:59;;;;;;;9.68;8.30;;;;;;;;;;5093373;28;20032;-74
2021/07/23 11:52:26;;;;;;;8.57;7.75;;;;;;;;;;5092289;28;20056;-75
2021/07/23 11:54:57;;;;;;;12.40;7.68;;;;;;;;;;5088287;28;20055;-72
2021/07/23 11:57:23;;;;;;;14.30;8.35;;;;;;;;;;5084554;28;20076;-74
2021/07/23 11:59:49;;;;;;;14.55;8.48;;;;;;;;;;5074340;28;20368;-74
2021/07/23 12:02:16;;;;;;;12.73;8.70;;;;;;;;;;5072269;28;20056;-71
2021/07/23 12:04:42;;;;;;;12.40;10.00;;;;;;;;;;5085110;28;20054;-73
2021/07/23 12:07:08;;;;;;;10.18;8.98;;;;;;;;;;5093219;28;20108;-75
2021/07/23 12:09:34;;;;;;;9.77;8.82;;;;;;;;;;5093979;28;20020;-74
2021/07/23 12:12:00;;;;;;;9.82;8.85;;;;;;;;;;5092037;28;20059;-76
2021/07/23 12:14:26;;;;;;;11.68;8.70;;;;;;;;;;5097232;28;20537;-73
2021/07/23 12:16:52;;;;;;;12.38;9.25;;;;;;;;;;5097874;28;20420;-76
2021/07/23 12:19:19;;;;;;;10.95;9.60;;;;;;;;;;5091642;28;20024;-76
2021/07/23 12:21:45;;;;;;;14.60;9.18;;;;;;;;;;5075858;28;20047;-77
2021/07/23 12:24:11;;;;;;;11.00;9.63;;;;;;;;;;5076021;28;20106;-75
2021/07/23 12:26:38;;;;;;;11.50;8.82;;;;;;;;;;5077277;28;20024;-75
2021/07/23 12:29:05;;;;;;;10.02;9.05;;;;;;;;;;5075163;28;20466;-75
2021/07/23 12:31:31;;;;;;;9.63;8.82;;;;;;;;;;5075323;28;20024;-74
2021/07/23 12:34:05;;;;;;;9.32;7.70;;;;;;;;;;5076152;28;20032;-75
2021/07/23 12:36:40;;;;;;;23.38;10.75;;;;;;;;;;5075578;28;20107;-74
2021/07/23 12:39:06;;;;;;;11.40;9.23;;;;;;;;;;5075894;28;20031;-73
2021/07/23 12:41:32;;;;;;;13.80;8.55;;;;;;;;;;5076014;28;20043;-75
2021/07/23 12:44:14;;;;;;;11.15;8.73;;;;;;;;;;5075590;28;20035;-74
2021/07/23 12:46:41;;;;;;;10.18;9.05;;;;;;;;;;5076849;28;20107;-73
2021/07/23 12:49:09;;;;;;;9.32;8.27;;;;;;;;;;5095771;28;20111;-73
2021/07/23 12:51:35;;;;;;;9.18;8.00;;;;;;;;;;5096263;28;20111;-75
2021/07/23 12:54:01;;;;;;;13.18;8.23;;;;;;;;;;5096115;28;20056;-73
2021/07/23 12:56:30;;;;;;;11.18;8.75;;;;;;;;;;5094154;28;20110;-77
2021/07/23 12:58:56;;;;;;;12.50;10.73;;;;;;;;;;5076321;28;20021;-72
2021/07/23 13:01:22;;;;;;;8.80;7.90;;;;;;;;;;5074820;28;20051;-73
2021/07/23 13:03:49;;;;;;;12.68;8.07;;;;;;;;;;5074944;28;20094;-73
2021/07/23 13:06:19;;;;;;;9.68;8.65;;;;;;;;;;5075761;28;20029;-72
2021/07/23 13:08:46;;;;;;;11.27;9.10;;;;;;;;;;5074822;28;20017;-73
2021/07/23 13:11:12;;;;;;;8.43;7.55;;;;;;;;;;5076091;28;20259;-72
2021/07/23 13:13:40;;;;;;;8.82;7.93;;;;;;;;;;5075380;28;20047;-71
2021/07/23 13:16:06;;;;;;;9.75;8.85;;;;;;;;;;5075158;28;20028;-73
2021/07/23 13:18:32;;;;;;;9.40;8.20;;;;;;;;;;5092097;28;20031;-76
2021/07/23 13:20:58;;;;;;;10.45;7.53;;;;;;;;;;5096037;28;20377;-77
2021/07/23 13:23:25;;;;;;;8.88;8.05;;;;;;;;;;5095536;28;20105;-76
2021/07/23 13:25:53;;;;;;;9.23;8.32;;;;;;;;;;5095408;28;20105;-75
2021/07/23 13:28:19;;;;;;;10.75;8.65;;;;;;;;;;5078665;28;20048;-73
2021/07/23 13:30:46;;;;;;;11.35;8.98;;;;;;;;;;5075113;28;20028;-76
2021/07/23 13:33:12;;;;;;;21.60;9.88;;;;;;;;;;5075305;28;20652;-76
2021/07/23 13:35:38;;;;;;;9.93;8.40;;;;;;;;;;5074896;28;20028;-76
2021/07/23 13:38:08;;;;;;;9.98;8.77;;;;;;;;;;5073947;28;20027;-76
2021/07/23 13:40:34;;;;;;;10.98;9.05;;;;;;;;;;5075754;28;20443;-75
2021/07/23 13:43:01;;;;;;;11.43;9.48;;;;;;;;;;5074883;28;20082;-77
2021/07/23 13:45:27;;;;;;;13.82;11.35;;;;;;;;;;5075314;28;20024;-76
2021/07/23 13:47:55;;;;;;;9.98;9.07;;;;;;;;;;5085355;28;20027;-75
2021/07/23 13:50:21;;;;;;;11.27;9.65;;;;;;;;;;5095723;28;20035;-75
2021/07/23 13:52:47;;;;;;;11.30;8.90;;;;;;;;;;5094722;28;20052;-78
2021/07/23 13:55:13;;;;;;;14.63;9.60;;;;;;;;;;5095076;28;20474;-78
2021/07/23 13:57:40;;;;;;;12.27;9.70;;;;;;;;;;5082828;28;20024;-78
2021/07/23 14:00:07;;;;;;;10.05;9.23;;;;;;;;;;5074360;28;20032;-77
2021/07/23 14:02:34;;;;;;;10.35;8.38;;;;;;;;;;5074971;28;20024;-74
2021/07/23 14:05:00;;;;;;;9.95;9.05;;;;;;;;;;5074367;28;20533;-73
2021/07/23 14:07:26;;;;;;;17.10;9.63;;;;;;;;;;5073329;28;20020;-74
2021/07/23 14:09:52;;;;;;;9.25;8.32;;;;;;;;;;5074407;28;20576;-75
2021/07/23 14:12:18;;;;;;;13.93;9.80;;;;;;;;;;5074729;28;20505;-75
2021/07/23 14:14:44;;;;;;;10.52;9.50;;;;;;;;;;5074423;28;20033;-77
2021/07/23 14:17:10;;;;;;;9.23;8.35;;;;;;;;;;5073583;28;20024;-77
2021/07/23 14:19:36;;;;;;;10.60;9.50;;;;;;;;;;5074220;28;20459;-77
2021/07/23 14:22:02;;;;;;;9.10;8.20;;;;;;;;;;5074024;28;20382;-76
2021/07/23 14:24:31;;;;;;;10.43;9.32;;;;;;;;;;5074654;28;20462;-76
2021/07/23 14:26:57;;;;;;;9.77;8.88;;;;;;;;;;5078050;28;20059;-78
2021/07/23 14:29:23;;;;;;;13.90;10.18;;;;;;;;;;5094029;28;20032;-78
2021/07/23 14:31:50;;;;;;;14.07;9.25;;;;;;;;;;5094399;28;20050;-76